sensor_id;sensor_type;location;lat;lon;timestamp;P1;durP1;ratioP1;P2;durP2;ratioP2
54368;SDS011;40266;52.434;17.056;2022-10-12T00:02:28;34.50;;;12.50;;
54368;SDS011;40266;52.434;17.056;2022-10-12T00:05:11;31.90;;;13.90;;
54368;SDS011;40266;52.434;17.056;2022-10-12T00:07:54;36.20;;;14.30;;
54368;SDS011;40266;52.434;17.056;2022-10-12T00:10:40;33.10;;;14.00;;
54368;SDS011;40266;52.434;17.056;2022-10-12T00:13:25;36.30;;;14.90;;
54368;SDS011;40266;52.434;17.056;2022-10-12T00:16:13;31.30;;;14.40;;
54368;SDS011;40266;52.434;17.056;2022-10-12T00:18:58;38.40;;;15.70;;
54368;SDS011;40266;52.434;17.056;2022-10-12T00:24:23;35.30;;;14.90;;
54368;SDS011;40266;52.434;17.056;2022-10-12T00:27:07;33.80;;;16.50;;
54368;SDS011;40266;52.434;17.056;2022-10-12T00:29:49;38.40;;;17.90;;
54368;SDS011;40266;52.434;17.056;2022-10-12T00:32:32;35.90;;;15.50;;
54368;SDS011;40266;52.434;17.056;2022-10-12T00:35:15;37.00;;;17.60;;
54368;SDS011;40266;52.434;17.056;2022-10-12T00:40:40;47.10;;;17.80;;
54368;SDS011;40266;52.434;17.056;2022-10-12T00:46:38;37.10;;;16.80;;
54368;SDS011;40266;52.434;17.056;2022-10-12T00:49:26;43.70;;;18.70;;
54368;SDS011;40266;52.434;17.056;2022-10-12T00:54:53;41.10;;;17.00;;
54368;SDS011;40266;52.434;17.056;2022-10-12T00:57:37;46.30;;;19.00;;
54368;SDS011;40266;52.434;17.056;2022-10-12T01:00:27;43.10;;;17.90;;
54368;SDS011;40266;52.434;17.056;2022-10-12T01:03:10;43.10;;;18.70;;
54368;SDS011;40266;52.434;17.056;2022-10-12T01:05:57;40.40;;;16.90;;
54368;SDS011;40266;52.434;17.056;2022-10-12T01:08:40;49.90;;;21.00;;
54368;SDS011;40266;52.434;17.056;2022-10-12T01:11:24;43.60;;;19.90;;
54368;SDS011;40266;52.434;17.056;2022-10-12T01:16:53;47.50;;;18.00;;
54368;SDS011;40266;52.434;17.056;2022-10-12T01:22:41;52.40;;;20.90;;
54368;SDS011;40266;52.434;17.056;2022-10-12T01:32:02;51.80;;;21.60;;
54368;SDS011;40266;52.434;17.056;2022-10-12T01:35:04;44.90;;;21.80;;
54368;SDS011;40266;52.434;17.056;2022-10-12T01:41:03;49.50;;;22.80;;
54368;SDS011;40266;52.434;17.056;2022-10-12T01:43:52;46.70;;;22.30;;
54368;SDS011;40266;52.434;17.056;2022-10-12T01:49:23;51.40;;;22.00;;
54368;SDS011;40266;52.434;17.056;2022-10-12T01:52:18;58.40;;;25.80;;
54368;SDS011;40266;52.434;17.056;2022-10-12T02:07:00;51.90;;;24.30;;
54368;SDS011;40266;52.434;17.056;2022-10-12T02:09:50;54.20;;;27.30;;
54368;SDS011;40266;52.434;17.056;2022-10-12T02:12:38;60.10;;;28.20;;
54368;SDS011;40266;52.434;17.056;2022-10-12T02:15:24;55.50;;;24.50;;
54368;SDS011;40266;52.434;17.056;2022-10-12T02:18:10;54.60;;;24.80;;
54368;SDS011;40266;52.434;17.056;2022-10-12T02:20:57;54.80;;;26.50;;
54368;SDS011;40266;52.434;17.056;2022-10-12T02:23:42;66.00;;;28.30;;
54368;SDS011;40266;52.434;17.056;2022-10-12T02:26:27;51.50;;;24.50;;
54368;SDS011;40266;52.434;17.056;2022-10-12T02:29:13;55.70;;;23.70;;
54368;SDS011;40266;52.434;17.056;2022-10-12T02:32:06;55.50;;;25.50;;
54368;SDS011;40266;52.434;17.056;2022-10-12T02:37:55;54.00;;;23.00;;
54368;SDS011;40266;52.434;17.056;2022-10-12T02:41:04;54.60;;;24.70;;
54368;SDS011;40266;52.434;17.056;2022-10-12T02:43:56;57.20;;;26.10;;
54368;SDS011;40266;52.434;17.056;2022-10-12T02:46:42;62.50;;;26.00;;
54368;SDS011;40266;52.434;17.056;2022-10-12T02:49:29;54.80;;;25.40;;
54368;SDS011;40266;52.434;17.056;2022-10-12T02:52:15;62.30;;;24.90;;
54368;SDS011;40266;52.434;17.056;2022-10-12T02:57:41;57.80;;;24.10;;
54368;SDS011;40266;52.434;17.056;2022-10-12T03:03:06;52.80;;;27.00;;
54368;SDS011;40266;52.434;17.056;2022-10-12T03:05:49;58.10;;;25.80;;
54368;SDS011;40266;52.434;17.056;2022-10-12T03:11:15;54.60;;;26.70;;
54368;SDS011;40266;52.434;17.056;2022-10-12T03:13:58;65.90;;;28.20;;
54368;SDS011;40266;52.434;17.056;2022-10-12T03:16:41;61.50;;;28.60;;
54368;SDS011;40266;52.434;17.056;2022-10-12T03:19:25;68.30;;;28.40;;
54368;SDS011;40266;52.434;17.056;2022-10-12T03:24:51;69.70;;;27.20;;
54368;SDS011;40266;52.434;17.056;2022-10-12T03:30:16;60.10;;;27.90;;
54368;SDS011;40266;52.434;17.056;2022-10-12T03:32:59;63.20;;;27.90;;
54368;SDS011;40266;52.434;17.056;2022-10-12T03:35:43;68.30;;;29.30;;
54368;SDS011;40266;52.434;17.056;2022-10-12T03:38:26;55.10;;;27.60;;
54368;SDS011;40266;52.434;17.056;2022-10-12T03:41:10;65.50;;;28.50;;
54368;SDS011;40266;52.434;17.056;2022-10-12T03:43:52;68.30;;;31.40;;
54368;SDS011;40266;52.434;17.056;2022-10-12T03:46:35;57.90;;;29.70;;
54368;SDS011;40266;52.434;17.056;2022-10-12T03:49:18;68.30;;;28.80;;
54368;SDS011;40266;52.434;17.056;2022-10-12T03:52:01;73.90;;;30.30;;
54368;SDS011;40266;52.434;17.056;2022-10-12T03:54:44;59.70;;;29.30;;
54368;SDS011;40266;52.434;17.056;2022-10-12T03:57:27;68.10;;;29.30;;
54368;SDS011;40266;52.434;17.056;2022-10-12T04:00:11;63.50;;;28.90;;
54368;SDS011;40266;52.434;17.056;2022-10-12T04:02:55;60.00;;;29.50;;
54368;SDS011;40266;52.434;17.056;2022-10-12T04:08:21;64.20;;;30.40;;
54368;SDS011;40266;52.434;17.056;2022-10-12T04:11:05;68.60;;;30.60;;
54368;SDS011;40266;52.434;17.056;2022-10-12T04:13:48;58.80;;;29.60;;
54368;SDS011;40266;52.434;17.056;2022-10-12T04:19:13;59.50;;;28.30;;
54368;SDS011;40266;52.434;17.056;2022-10-12T04:21:56;65.60;;;29.60;;
54368;SDS011;40266;52.434;17.056;2022-10-12T04:24:39;63.80;;;28.40;;
54368;SDS011;40266;52.434;17.056;2022-10-12T04:30:05;68.10;;;29.40;;
54368;SDS011;40266;52.434;17.056;2022-10-12T04:32:48;65.30;;;30.70;;
54368;SDS011;40266;52.434;17.056;2022-10-12T04:35:31;75.00;;;33.80;;
54368;SDS011;40266;52.434;17.056;2022-10-12T04:40:57;75.90;;;30.50;;
54368;SDS011;40266;52.434;17.056;2022-10-12T04:43:40;63.40;;;28.30;;
54368;SDS011;40266;52.434;17.056;2022-10-12T04:46:23;69.00;;;29.80;;
54368;SDS011;40266;52.434;17.056;2022-10-12T04:51:48;65.80;;;29.70;;
54368;SDS011;40266;52.434;17.056;2022-10-12T04:54:31;67.50;;;29.60;;
54368;SDS011;40266;52.434;17.056;2022-10-12T04:57:14;64.40;;;29.70;;
54368;SDS011;40266;52.434;17.056;2022-10-12T05:02:40;67.40;;;29.90;;
54368;SDS011;40266;52.434;17.056;2022-10-12T05:05:22;63.20;;;30.80;;
54368;SDS011;40266;52.434;17.056;2022-10-12T05:08:05;63.40;;;31.30;;
54368;SDS011;40266;52.434;17.056;2022-10-12T05:10:48;62.50;;;27.90;;
54368;SDS011;40266;52.434;17.056;2022-10-12T05:13:32;57.70;;;29.90;;
54368;SDS011;40266;52.434;17.056;2022-10-12T05:16:16;65.10;;;30.00;;
54368;SDS011;40266;52.434;17.056;2022-10-12T05:18:59;72.10;;;32.40;;
54368;SDS011;40266;52.434;17.056;2022-10-12T05:24:25;72.80;;;29.20;;
54368;SDS011;40266;52.434;17.056;2022-10-12T05:27:08;71.70;;;30.50;;
54368;SDS011;40266;52.434;17.056;2022-10-12T05:29:51;66.30;;;30.80;;
54368;SDS011;40266;52.434;17.056;2022-10-12T05:35:17;66.10;;;31.80;;
54368;SDS011;40266;52.434;17.056;2022-10-12T05:38:00;79.10;;;33.50;;
54368;SDS011;40266;52.434;17.056;2022-10-12T05:40:43;69.80;;;32.40;;
54368;SDS011;40266;52.434;17.056;2022-10-12T05:46:09;64.00;;;30.20;;
54368;SDS011;40266;52.434;17.056;2022-10-12T05:48:55;68.60;;;32.10;;
54368;SDS011;40266;52.434;17.056;2022-10-12T05:51:38;68.80;;;31.00;;
54368;SDS011;40266;52.434;17.056;2022-10-12T05:54:22;74.00;;;32.80;;
54368;SDS011;40266;52.434;17.056;2022-10-12T05:59:47;78.30;;;31.80;;
54368;SDS011;40266;52.434;17.056;2022-10-12T06:05:13;68.90;;;30.10;;
54368;SDS011;40266;52.434;17.056;2022-10-12T06:10:45;71.80;;;31.30;;
54368;SDS011;40266;52.434;17.056;2022-10-12T06:13:31;68.10;;;32.10;;
54368;SDS011;40266;52.434;17.056;2022-10-12T06:18:57;66.30;;;29.20;;
54368;SDS011;40266;52.434;17.056;2022-10-12T06:21:40;81.60;;;35.30;;
54368;SDS011;40266;52.434;17.056;2022-10-12T06:27:06;74.70;;;34.80;;
54368;SDS011;40266;52.434;17.056;2022-10-12T06:29:49;70.60;;;37.50;;
54368;SDS011;40266;52.434;17.056;2022-10-12T06:35:15;74.20;;;33.80;;
54368;SDS011;40266;52.434;17.056;2022-10-12T06:40:40;78.10;;;36.80;;
54368;SDS011;40266;52.434;17.056;2022-10-12T06:43:23;69.20;;;34.70;;
54368;SDS011;40266;52.434;17.056;2022-10-12T06:46:06;68.90;;;34.50;;
54368;SDS011;40266;52.434;17.056;2022-10-12T06:48:49;73.00;;;35.90;;
54368;SDS011;40266;52.434;17.056;2022-10-12T06:54:15;84.40;;;35.90;;
54368;SDS011;40266;52.434;17.056;2022-10-12T06:56:58;66.90;;;31.40;;
54368;SDS011;40266;52.434;17.056;2022-10-12T06:59:40;75.20;;;33.10;;
54368;SDS011;40266;52.434;17.056;2022-10-12T07:02:23;71.70;;;32.00;;
54368;SDS011;40266;52.434;17.056;2022-10-12T07:07:49;66.30;;;28.80;;
54368;SDS011;40266;52.434;17.056;2022-10-12T07:10:32;58.30;;;28.80;;
54368;SDS011;40266;52.434;17.056;2022-10-12T07:15:58;53.00;;;25.60;;
54368;SDS011;40266;52.434;17.056;2022-10-12T07:18:41;49.70;;;24.00;;
54368;SDS011;40266;52.434;17.056;2022-10-12T07:24:06;44.90;;;22.60;;
54368;SDS011;40266;52.434;17.056;2022-10-12T07:26:51;45.20;;;21.70;;
54368;SDS011;40266;52.434;17.056;2022-10-12T07:29:34;39.70;;;20.60;;
54368;SDS011;40266;52.434;17.056;2022-10-12T07:32:18;46.00;;;22.30;;
54368;SDS011;40266;52.434;17.056;2022-10-12T07:35:01;41.00;;;19.90;;
54368;SDS011;40266;52.434;17.056;2022-10-12T07:37:43;45.00;;;21.70;;
54368;SDS011;40266;52.434;17.056;2022-10-12T07:40:26;41.00;;;21.30;;
54368;SDS011;40266;52.434;17.056;2022-10-12T07:43:09;41.30;;;19.70;;
54368;SDS011;40266;52.434;17.056;2022-10-12T07:45:58;38.00;;;19.40;;
54368;SDS011;40266;52.434;17.056;2022-10-12T07:48:41;41.10;;;19.30;;
54368;SDS011;40266;52.434;17.056;2022-10-12T07:51:31;38.40;;;18.70;;
54368;SDS011;40266;52.434;17.056;2022-10-12T07:54:14;37.20;;;16.20;;
54368;SDS011;40266;52.434;17.056;2022-10-12T07:57:02;36.40;;;18.20;;
54368;SDS011;40266;52.434;17.056;2022-10-12T07:59:45;33.30;;;16.90;;
54368;SDS011;40266;52.434;17.056;2022-10-12T08:02:28;38.70;;;18.10;;
54368;SDS011;40266;52.434;17.056;2022-10-12T08:05:11;36.70;;;17.00;;
54368;SDS011;40266;52.434;17.056;2022-10-12T08:07:54;36.10;;;17.50;;
54368;SDS011;40266;52.434;17.056;2022-10-12T08:10:37;31.40;;;14.50;;
54368;SDS011;40266;52.434;17.056;2022-10-12T08:13:20;39.10;;;16.10;;
54368;SDS011;40266;52.434;17.056;2022-10-12T08:16:04;34.40;;;13.50;;
54368;SDS011;40266;52.434;17.056;2022-10-12T08:18:49;27.30;;;12.30;;
54368;SDS011;40266;52.434;17.056;2022-10-12T08:21:32;27.60;;;12.80;;
54368;SDS011;40266;52.434;17.056;2022-10-12T08:24:16;30.50;;;13.30;;
54368;SDS011;40266;52.434;17.056;2022-10-12T08:26:59;33.10;;;13.00;;
54368;SDS011;40266;52.434;17.056;2022-10-12T08:29:43;31.10;;;12.50;;
54368;SDS011;40266;52.434;17.056;2022-10-12T08:32:25;29.10;;;12.10;;
54368;SDS011;40266;52.434;17.056;2022-10-12T08:35:08;30.40;;;12.00;;
54368;SDS011;40266;52.434;17.056;2022-10-12T08:37:52;31.90;;;13.00;;
54368;SDS011;40266;52.434;17.056;2022-10-12T08:46:23;28.30;;;12.30;;
54368;SDS011;40266;52.434;17.056;2022-10-12T08:49:15;35.80;;;12.00;;
54368;SDS011;40266;52.434;17.056;2022-10-12T08:52:02;34.20;;;12.70;;
54368;SDS011;40266;52.434;17.056;2022-10-12T08:54:47;26.40;;;11.40;;
54368;SDS011;40266;52.434;17.056;2022-10-12T08:57:31;31.00;;;10.80;;
54368;SDS011;40266;52.434;17.056;2022-10-12T09:00:14;29.40;;;12.10;;
54368;SDS011;40266;52.434;17.056;2022-10-12T09:06:04;22.00;;;7.40;;
54368;SDS011;40266;52.434;17.056;2022-10-12T09:15:42;26.60;;;9.50;;
54368;SDS011;40266;52.434;17.056;2022-10-12T09:18:42;26.00;;;7.70;;
54368;SDS011;40266;52.434;17.056;2022-10-12T09:21:27;23.30;;;6.70;;
54368;SDS011;40266;52.434;17.056;2022-10-12T09:24:21;26.80;;;8.50;;
54368;SDS011;40266;52.434;17.056;2022-10-12T09:27:12;18.90;;;6.00;;
54368;SDS011;40266;52.434;17.056;2022-10-12T09:29:58;20.50;;;5.70;;
54368;SDS011;40266;52.434;17.056;2022-10-12T09:32:51;22.10;;;4.90;;
54368;SDS011;40266;52.434;17.056;2022-10-12T09:35:43;14.50;;;4.70;;
54368;SDS011;40266;52.434;17.056;2022-10-12T09:38:28;20.20;;;4.70;;
54368;SDS011;40266;52.434;17.056;2022-10-12T09:41:15;15.30;;;4.10;;
54368;SDS011;40266;52.434;17.056;2022-10-12T09:44:03;11.60;;;4.40;;
54368;SDS011;40266;52.434;17.056;2022-10-12T09:46:50;13.50;;;3.80;;
54368;SDS011;40266;52.434;17.056;2022-10-12T09:57:56;9.60;;;2.90;;
54368;SDS011;40266;52.434;17.056;2022-10-12T10:00:43;11.80;;;3.60;;
54368;SDS011;40266;52.434;17.056;2022-10-12T10:03:26;11.70;;;3.50;;
54368;SDS011;40266;52.434;17.056;2022-10-12T10:06:13;13.90;;;2.70;;
54368;SDS011;40266;52.434;17.056;2022-10-12T10:08:57;19.80;;;3.30;;
54368;SDS011;40266;52.434;17.056;2022-10-12T10:11:39;13.60;;;3.40;;
54368;SDS011;40266;52.434;17.056;2022-10-12T10:14:22;24.20;;;6.00;;
54368;SDS011;40266;52.434;17.056;2022-10-12T10:17:06;11.90;;;3.30;;
54368;SDS011;40266;52.434;17.056;2022-10-12T10:19:52;17.10;;;4.00;;
54368;SDS011;40266;52.434;17.056;2022-10-12T10:22:45;17.10;;;4.80;;
54368;SDS011;40266;52.434;17.056;2022-10-12T10:25:29;16.90;;;5.10;;
54368;SDS011;40266;52.434;17.056;2022-10-12T10:31:27;14.70;;;4.80;;
54368;SDS011;40266;52.434;17.056;2022-10-12T10:34:19;14.80;;;5.40;;
54368;SDS011;40266;52.434;17.056;2022-10-12T10:37:04;17.50;;;5.20;;
54368;SDS011;40266;52.434;17.056;2022-10-12T10:39:49;14.30;;;4.80;;
54368;SDS011;40266;52.434;17.056;2022-10-12T10:42:34;19.30;;;5.10;;
54368;SDS011;40266;52.434;17.056;2022-10-12T10:45:22;13.80;;;4.70;;
54368;SDS011;40266;52.434;17.056;2022-10-12T10:48:08;13.10;;;4.40;;
54368;SDS011;40266;52.434;17.056;2022-10-12T10:50:57;16.00;;;5.10;;
54368;SDS011;40266;52.434;17.056;2022-10-12T10:53:46;20.00;;;4.90;;
54368;SDS011;40266;52.434;17.056;2022-10-12T10:56:31;16.60;;;5.70;;
54368;SDS011;40266;52.434;17.056;2022-10-12T10:59:18;17.80;;;5.20;;
54368;SDS011;40266;52.434;17.056;2022-10-12T11:05:18;13.60;;;4.10;;
54368;SDS011;40266;52.434;17.056;2022-10-12T11:08:04;16.40;;;5.00;;
54368;SDS011;40266;52.434;17.056;2022-10-12T11:11:00;19.20;;;4.30;;
54368;SDS011;40266;52.434;17.056;2022-10-12T11:13:54;15.20;;;4.10;;
54368;SDS011;40266;52.434;17.056;2022-10-12T11:19:46;13.80;;;3.50;;
54368;SDS011;40266;52.434;17.056;2022-10-12T11:28:35;11.40;;;3.10;;
54368;SDS011;40266;52.434;17.056;2022-10-12T11:31:22;18.80;;;3.70;;
54368;SDS011;40266;52.434;17.056;2022-10-12T11:34:11;9.40;;;2.60;;
54368;SDS011;40266;52.434;17.056;2022-10-12T11:36:58;18.50;;;3.20;;
54368;SDS011;40266;52.434;17.056;2022-10-12T11:40:00;12.10;;;3.30;;
54368;SDS011;40266;52.434;17.056;2022-10-12T11:42:46;9.30;;;2.80;;
54368;SDS011;40266;52.434;17.056;2022-10-12T11:45:35;10.80;;;3.00;;
54368;SDS011;40266;52.434;17.056;2022-10-12T11:48:27;9.90;;;3.00;;
54368;SDS011;40266;52.434;17.056;2022-10-12T11:51:16;12.10;;;3.20;;
54368;SDS011;40266;52.434;17.056;2022-10-12T11:54:00;9.00;;;2.40;;
54368;SDS011;40266;52.434;17.056;2022-10-12T11:56:51;7.50;;;2.70;;
54368;SDS011;40266;52.434;17.056;2022-10-12T12:05:13;14.70;;;2.70;;
54368;SDS011;40266;52.434;17.056;2022-10-12T12:07:59;8.40;;;2.20;;
54368;SDS011;40266;52.434;17.056;2022-10-12T12:10:42;10.90;;;2.30;;
54368;SDS011;40266;52.434;17.056;2022-10-12T12:13:25;8.00;;;2.10;;
54368;SDS011;40266;52.434;17.056;2022-10-12T12:19:09;7.90;;;2.70;;
54368;SDS011;40266;52.434;17.056;2022-10-12T12:31:04;15.60;;;4.10;;
54368;SDS011;40266;52.434;17.056;2022-10-12T12:36:55;12.40;;;3.10;;
54368;SDS011;40266;52.434;17.056;2022-10-12T12:39:39;14.10;;;4.30;;
54368;SDS011;40266;52.434;17.056;2022-10-12T12:42:26;14.30;;;3.30;;
54368;SDS011;40266;52.434;17.056;2022-10-12T12:48:23;9.00;;;3.60;;
54368;SDS011;40266;52.434;17.056;2022-10-12T12:54:18;7.90;;;2.50;;
54368;SDS011;40266;52.434;17.056;2022-10-12T13:03:14;17.20;;;3.30;;
54368;SDS011;40266;52.434;17.056;2022-10-12T13:12:11;19.80;;;3.80;;
54368;SDS011;40266;52.434;17.056;2022-10-12T13:21:28;15.20;;;3.40;;
54368;SDS011;40266;52.434;17.056;2022-10-12T13:36:00;10.80;;;4.30;;
54368;SDS011;40266;52.434;17.056;2022-10-12T13:38:47;13.20;;;4.10;;
54368;SDS011;40266;52.434;17.056;2022-10-12T13:41:37;34.60;;;5.10;;
54368;SDS011;40266;52.434;17.056;2022-10-12T13:44:23;27.50;;;3.90;;
54368;SDS011;40266;52.434;17.056;2022-10-12T13:50:18;23.10;;;4.60;;
54368;SDS011;40266;52.434;17.056;2022-10-12T13:53:11;14.20;;;3.40;;
54368;SDS011;40266;52.434;17.056;2022-10-12T13:55:59;19.70;;;3.90;;
54368;SDS011;40266;52.434;17.056;2022-10-12T13:58:46;13.90;;;3.30;;
54368;SDS011;40266;52.434;17.056;2022-10-12T14:01:29;13.50;;;3.60;;
54368;SDS011;40266;52.434;17.056;2022-10-12T14:04:12;13.30;;;3.20;;
54368;SDS011;40266;52.434;17.056;2022-10-12T14:10:04;12.60;;;3.50;;
54368;SDS011;40266;52.434;17.056;2022-10-12T14:12:51;11.50;;;3.20;;
54368;SDS011;40266;52.434;17.056;2022-10-12T14:15:36;12.40;;;3.90;;
54368;SDS011;40266;52.434;17.056;2022-10-12T14:18:41;14.50;;;3.40;;
54368;SDS011;40266;52.434;17.056;2022-10-12T14:21:28;16.20;;;3.90;;
54368;SDS011;40266;52.434;17.056;2022-10-12T14:24:17;18.20;;;4.40;;
54368;SDS011;40266;52.434;17.056;2022-10-12T14:27:02;16.70;;;3.30;;
54368;SDS011;40266;52.434;17.056;2022-10-12T14:29:46;15.80;;;3.20;;
54368;SDS011;40266;52.434;17.056;2022-10-12T14:32:34;13.70;;;2.90;;
54368;SDS011;40266;52.434;17.056;2022-10-12T14:35:21;15.70;;;3.40;;
54368;SDS011;40266;52.434;17.056;2022-10-12T14:41:35;13.10;;;3.10;;
54368;SDS011;40266;52.434;17.056;2022-10-12T14:44:24;19.20;;;3.70;;
54368;SDS011;40266;52.434;17.056;2022-10-12T14:50:08;15.00;;;3.60;;
54368;SDS011;40266;52.434;17.056;2022-10-12T14:52:59;13.80;;;3.60;;
54368;SDS011;40266;52.434;17.056;2022-10-12T14:55:45;11.90;;;3.20;;
54368;SDS011;40266;52.434;17.056;2022-10-12T14:58:35;9.90;;;2.70;;
54368;SDS011;40266;52.434;17.056;2022-10-12T15:01:19;11.30;;;2.70;;
54368;SDS011;40266;52.434;17.056;2022-10-12T15:04:04;17.00;;;3.10;;
54368;SDS011;40266;52.434;17.056;2022-10-12T15:06:48;10.40;;;3.10;;
54368;SDS011;40266;52.434;17.056;2022-10-12T15:09:32;12.60;;;2.80;;
54368;SDS011;40266;52.434;17.056;2022-10-12T15:12:20;9.60;;;3.00;;
54368;SDS011;40266;52.434;17.056;2022-10-12T15:18:15;19.10;;;3.20;;
54368;SDS011;40266;52.434;17.056;2022-10-12T15:20:57;22.50;;;4.60;;
54368;SDS011;40266;52.434;17.056;2022-10-12T15:23:40;20.00;;;4.10;;
54368;SDS011;40266;52.434;17.056;2022-10-12T15:26:23;26.30;;;9.70;;
54368;SDS011;40266;52.434;17.056;2022-10-12T15:29:06;25.50;;;7.30;;
54368;SDS011;40266;52.434;17.056;2022-10-12T15:31:49;22.00;;;5.70;;
54368;SDS011;40266;52.434;17.056;2022-10-12T15:34:32;21.90;;;7.00;;
54368;SDS011;40266;52.434;17.056;2022-10-12T15:37:15;22.70;;;7.80;;
54368;SDS011;40266;52.434;17.056;2022-10-12T15:40:00;34.70;;;9.20;;
54368;SDS011;40266;52.434;17.056;2022-10-12T15:42:43;27.60;;;8.70;;
54368;SDS011;40266;52.434;17.056;2022-10-12T15:45:33;40.00;;;12.50;;
54368;SDS011;40266;52.434;17.056;2022-10-12T15:48:17;30.90;;;13.30;;
54368;SDS011;40266;52.434;17.056;2022-10-12T15:51:00;36.60;;;12.40;;
54368;SDS011;40266;52.434;17.056;2022-10-12T15:53:43;41.80;;;13.50;;
54368;SDS011;40266;52.434;17.056;2022-10-12T15:56:26;33.80;;;13.80;;
54368;SDS011;40266;52.434;17.056;2022-10-12T15:59:09;36.00;;;13.70;;
54368;SDS011;40266;52.434;17.056;2022-10-12T16:01:52;39.30;;;15.80;;
54368;SDS011;40266;52.434;17.056;2022-10-12T16:04:35;47.50;;;14.70;;
54368;SDS011;40266;52.434;17.056;2022-10-12T16:07:18;36.70;;;13.30;;
54368;SDS011;40266;52.434;17.056;2022-10-12T16:10:01;42.90;;;13.50;;
54368;SDS011;40266;52.434;17.056;2022-10-12T16:12:45;43.10;;;13.40;;
54368;SDS011;40266;52.434;17.056;2022-10-12T16:15:31;43.30;;;13.30;;
54368;SDS011;40266;52.434;17.056;2022-10-12T16:18:15;45.30;;;13.50;;
54368;SDS011;40266;52.434;17.056;2022-10-12T16:20:59;36.50;;;13.80;;
54368;SDS011;40266;52.434;17.056;2022-10-12T16:23:41;43.20;;;14.70;;
54368;SDS011;40266;52.434;17.056;2022-10-12T16:26:24;46.20;;;17.50;;
54368;SDS011;40266;52.434;17.056;2022-10-12T16:29:08;48.90;;;15.60;;
54368;SDS011;40266;52.434;17.056;2022-10-12T16:34:34;41.00;;;14.90;;
54368;SDS011;40266;52.434;17.056;2022-10-12T16:37:17;44.10;;;15.40;;
54368;SDS011;40266;52.434;17.056;2022-10-12T16:40:02;42.50;;;15.10;;
54368;SDS011;40266;52.434;17.056;2022-10-12T16:42:55;37.90;;;14.40;;
54368;SDS011;40266;52.434;17.056;2022-10-12T16:45:39;44.90;;;13.90;;
54368;SDS011;40266;52.434;17.056;2022-10-12T16:48:21;47.50;;;14.60;;
54368;SDS011;40266;52.434;17.056;2022-10-12T16:53:51;43.30;;;11.80;;
54368;SDS011;40266;52.434;17.056;2022-10-12T16:56:34;45.30;;;10.10;;
54368;SDS011;40266;52.434;17.056;2022-10-12T16:59:21;27.90;;;9.10;;
54368;SDS011;40266;52.434;17.056;2022-10-12T17:02:04;29.50;;;8.90;;
54368;SDS011;40266;52.434;17.056;2022-10-12T17:04:47;25.40;;;6.90;;
54368;SDS011;40266;52.434;17.056;2022-10-12T17:12:55;26.10;;;8.90;;
54368;SDS011;40266;52.434;17.056;2022-10-12T17:15:39;30.20;;;8.00;;
54368;SDS011;40266;52.434;17.056;2022-10-12T17:18:23;28.00;;;8.30;;
54368;SDS011;40266;52.434;17.056;2022-10-12T17:21:06;28.70;;;8.50;;
54368;SDS011;40266;52.434;17.056;2022-10-12T17:23:49;44.60;;;9.80;;
54368;SDS011;40266;52.434;17.056;2022-10-12T17:26:31;34.70;;;9.80;;
54368;SDS011;40266;52.434;17.056;2022-10-12T17:29:20;33.60;;;10.80;;
54368;SDS011;40266;52.434;17.056;2022-10-12T17:32:03;89.10;;;15.80;;
54368;SDS011;40266;52.434;17.056;2022-10-12T17:34:49;111.30;;;17.70;;
54368;SDS011;40266;52.434;17.056;2022-10-12T17:40:14;75.50;;;16.30;;
54368;SDS011;40266;52.434;17.056;2022-10-12T17:45:40;71.10;;;20.40;;
54368;SDS011;40266;52.434;17.056;2022-10-12T17:51:06;60.50;;;18.50;;
54368;SDS011;40266;52.434;17.056;2022-10-12T17:53:51;68.10;;;20.60;;
54368;SDS011;40266;52.434;17.056;2022-10-12T17:56:35;60.30;;;22.90;;
54368;SDS011;40266;52.434;17.056;2022-10-12T17:59:18;67.50;;;23.50;;
54368;SDS011;40266;52.434;17.056;2022-10-12T18:02:01;60.10;;;24.80;;
54368;SDS011;40266;52.434;17.056;2022-10-12T18:07:26;80.20;;;28.00;;
54368;SDS011;40266;52.434;17.056;2022-10-12T18:10:09;90.30;;;35.30;;
54368;SDS011;40266;52.434;17.056;2022-10-12T18:12:52;82.00;;;37.50;;
54368;SDS011;40266;52.434;17.056;2022-10-12T18:18:22;87.50;;;39.00;;
54368;SDS011;40266;52.434;17.056;2022-10-12T18:21:05;91.10;;;36.20;;
54368;SDS011;40266;52.434;17.056;2022-10-12T18:23:49;88.50;;;34.60;;
54368;SDS011;40266;52.434;17.056;2022-10-12T18:26:32;93.70;;;34.30;;
54368;SDS011;40266;52.434;17.056;2022-10-12T18:29:15;89.20;;;35.40;;
54368;SDS011;40266;52.434;17.056;2022-10-12T18:31:58;92.70;;;34.20;;
54368;SDS011;40266;52.434;17.056;2022-10-12T18:34:41;81.60;;;34.00;;
54368;SDS011;40266;52.434;17.056;2022-10-12T18:37:23;82.50;;;34.40;;
54368;SDS011;40266;52.434;17.056;2022-10-12T18:40:07;88.30;;;33.00;;
54368;SDS011;40266;52.434;17.056;2022-10-12T18:42:50;88.90;;;33.30;;
54368;SDS011;40266;52.434;17.056;2022-10-12T18:48:16;106.00;;;44.40;;
54368;SDS011;40266;52.434;17.056;2022-10-12T18:51:05;116.80;;;54.30;;
54368;SDS011;40266;52.434;17.056;2022-10-12T18:53:49;114.10;;;51.90;;
54368;SDS011;40266;52.434;17.056;2022-10-12T18:59:16;120.20;;;54.20;;
54368;SDS011;40266;52.434;17.056;2022-10-12T19:01:59;123.80;;;55.70;;
54368;SDS011;40266;52.434;17.056;2022-10-12T19:04:42;112.60;;;54.20;;
54368;SDS011;40266;52.434;17.056;2022-10-12T19:07:25;130.90;;;57.30;;
54368;SDS011;40266;52.434;17.056;2022-10-12T19:12:54;126.10;;;55.00;;
54368;SDS011;40266;52.434;17.056;2022-10-12T19:15:37;111.80;;;54.70;;
54368;SDS011;40266;52.434;17.056;2022-10-12T19:21:07;125.50;;;57.30;;
54368;SDS011;40266;52.434;17.056;2022-10-12T19:23:54;123.30;;;54.20;;
54368;SDS011;40266;52.434;17.056;2022-10-12T19:26:37;115.80;;;52.80;;
54368;SDS011;40266;52.434;17.056;2022-10-12T19:29:21;123.60;;;52.80;;
54368;SDS011;40266;52.434;17.056;2022-10-12T19:34:49;104.00;;;50.10;;
54368;SDS011;40266;52.434;17.056;2022-10-12T19:37:33;107.80;;;50.10;;
54368;SDS011;40266;52.434;17.056;2022-10-12T19:40:20;117.40;;;52.30;;
54368;SDS011;40266;52.434;17.056;2022-10-12T19:43:03;102.20;;;47.50;;
54368;SDS011;40266;52.434;17.056;2022-10-12T19:45:46;100.10;;;45.70;;
54368;SDS011;40266;52.434;17.056;2022-10-12T19:51:11;94.40;;;45.60;;
54368;SDS011;40266;52.434;17.056;2022-10-12T19:53:55;98.50;;;45.10;;
54368;SDS011;40266;52.434;17.056;2022-10-12T19:56:40;97.30;;;43.20;;
54368;SDS011;40266;52.434;17.056;2022-10-12T20:02:05;87.30;;;41.20;;
54368;SDS011;40266;52.434;17.056;2022-10-12T20:04:48;89.10;;;40.60;;
54368;SDS011;40266;52.434;17.056;2022-10-12T20:07:35;96.50;;;38.90;;
54368;SDS011;40266;52.434;17.056;2022-10-12T20:10:19;82.70;;;37.40;;
54368;SDS011;40266;52.434;17.056;2022-10-12T20:13:02;78.70;;;33.30;;
54368;SDS011;40266;52.434;17.056;2022-10-12T20:15:49;80.30;;;34.00;;
54368;SDS011;40266;52.434;17.056;2022-10-12T20:18:33;76.30;;;33.00;;
54368;SDS011;40266;52.434;17.056;2022-10-12T20:21:18;66.40;;;30.20;;
54368;SDS011;40266;52.434;17.056;2022-10-12T20:24:03;59.90;;;28.80;;
54368;SDS011;40266;52.434;17.056;2022-10-12T20:26:46;65.70;;;27.90;;